createdAt,value
2023-05-15T00:00:31.975Z,9.8209
2023-05-15T00:01:40.057Z,9.7603
2023-05-15T00:02:48.151Z,9.6838
2023-05-15T00:03:56.027Z,9.6178
2023-05-15T00:05:04.213Z,9.4684
2023-05-15T00:06:12.160Z,9.5428
2023-05-15T00:07:20.384Z,9.6344
2023-05-15T00:08:28.430Z,9.5125
2023-05-15T00:09:36.484Z,9.5255
2023-05-15T00:10:57.474Z,9.4986
2023-05-15T00:11:57.454Z,9.5218
2023-05-15T00:13:05.516Z,9.5114
2023-05-15T00:14:13.586Z,9.4112
2023-05-15T00:15:21.662Z,9.3528
2023-05-15T00:16:29.699Z,9.3561
2023-05-15T00:17:37.744Z,9.3349
2023-05-15T00:18:45.678Z,9.2409
2023-05-15T00:19:53.767Z,9.2359
2023-05-15T00:21:01.904Z,9.2706
2023-05-15T00:22:09.938Z,9.3235
2023-05-15T00:23:18.036Z,9.3063
2023-05-15T00:24:26.085Z,9.2481
2023-05-15T00:25:34.311Z,9.2455
2023-05-15T00:26:42.217Z,9.2348
2023-05-15T00:27:50.258Z,9.3132
2023-05-15T00:28:58.317Z,9.3872
2023-05-15T00:30:06.394Z,9.4511
2023-05-15T00:31:14.504Z,9.4572
2023-05-15T00:32:22.361Z,9.4400
2023-05-15T00:33:30.408Z,9.4131
2023-05-15T00:34:38.492Z,9.4702
2023-05-15T00:35:46.653Z,9.5464
2023-05-15T00:36:54.750Z,9.6294
2023-05-15T00:38:02.797Z,9.8167
2023-05-15T00:39:10.844Z,9.9377
2023-05-15T00:40:18.932Z,9.9937
2023-05-15T00:41:27.276Z,10.0386
2023-05-15T00:42:35.061Z,10.0706
2023-05-15T00:43:43.134Z,10.1003
2023-05-15T00:44:51.121Z,10.1497
2023-05-15T00:45:59.188Z,9.9741
2023-05-15T00:47:07.149Z,9.8396
2023-05-15T00:48:15.176Z,9.8474
2023-05-15T00:49:23.223Z,9.8434
2023-05-15T00:50:31.561Z,9.7488
2023-05-15T00:51:39.466Z,9.6943
2023-05-15T00:52:47.493Z,9.6466
2023-05-15T00:53:55.648Z,9.5316
2023-05-15T00:55:03.617Z,9.5377
2023-05-15T00:56:11.781Z,9.5497
2023-05-15T00:57:19.796Z,9.6500
2023-05-15T00:58:27.871Z,9.7214
2023-05-15T00:59:36.004Z,9.6443
2023-05-15T01:00:44.034Z,9.6569
2023-05-15T01:01:51.886Z,9.6481
2023-05-15T01:03:00.056Z,9.5226
2023-05-15T01:04:07.991Z,9.5722
2023-05-15T01:05:16.263Z,9.6845
2023-05-15T01:06:24.370Z,9.7549
2023-05-15T01:07:32.304Z,9.8776
2023-05-15T01:08:40.385Z,10.0210
2023-05-15T01:09:48.388Z,10.2062
2023-05-15T01:10:56.621Z,10.3207
2023-05-15T01:12:04.544Z,10.3790
2023-05-15T01:13:12.828Z,10.4744
2023-05-15T01:14:20.676Z,10.5844
2023-05-15T01:15:28.728Z,10.7101
2023-05-15T01:16:36.664Z,10.7983
2023-05-15T01:17:44.744Z,10.8385
2023-05-15T01:18:52.824Z,10.8715
2023-05-15T01:20:00.992Z,10.8891
2023-05-15T01:21:09.016Z,10.9694
2023-05-15T01:22:17.288Z,10.9667
2023-05-15T01:23:25.118Z,10.9793
2023-05-15T01:24:33.176Z,11.0104
2023-05-15T01:25:41.461Z,10.8990
2023-05-15T01:26:49.332Z,10.8019
2023-05-15T01:27:57.421Z,10.6489
2023-05-15T01:29:05.383Z,10.6672
2023-05-15T01:30:13.639Z,10.5280
2023-05-15T01:31:21.398Z,10.4721
2023-05-15T01:32:29.480Z,10.4555
2023-05-15T01:33:37.530Z,10.3195
2023-05-15T01:34:45.691Z,10.3857
2023-05-15T01:35:53.755Z,10.4086
2023-05-15T01:37:01.839Z,10.3573
2023-05-15T01:38:09.972Z,10.2915
2023-05-15T01:39:17.947Z,10.1660
2023-05-15T01:40:26.231Z,9.9447
2023-05-15T01:41:34.037Z,9.9239
2023-05-15T01:42:42.344Z,9.9857
2023-05-15T01:43:50.189Z,10.0775
2023-05-15T01:44:58.362Z,10.1276
2023-05-15T01:46:06.151Z,10.1679
2023-05-15T01:47:14.197Z,10.1921
2023-05-15T01:48:22.257Z,10.1488
2023-05-15T01:49:30.667Z,9.9779
2023-05-15T01:50:38.530Z,10.1528
2023-05-15T01:51:46.623Z,10.2787
2023-05-15T01:52:54.655Z,10.3950
2023-05-15T01:54:02.805Z,10.4855
2023-05-15T01:55:10.816Z,10.5780
2023-05-15T01:56:18.874Z,10.4215
2023-05-15T01:57:26.890Z,10.4301
2023-05-15T01:58:34.918Z,10.4824
2023-05-15T01:59:43.024Z,10.5436
2023-05-15T02:00:50.941Z,10.5743
2023-05-15T02:01:59.056Z,10.6317
2023-05-15T02:03:07.176Z,10.7582
2023-05-15T02:04:15.248Z,10.7571
2023-05-15T02:05:23.489Z,10.6367
2023-05-15T02:06:31.421Z,10.5284
2023-05-15T02:07:39.518Z,10.2110
2023-05-15T02:08:47.499Z,9.9972
2023-05-15T02:09:55.755Z,9.8488
2023-05-15T02:11:03.648Z,9.7250
2023-05-15T02:12:11.883Z,9.6483
2023-05-15T02:13:19.814Z,9.6496
2023-05-15T02:14:27.867Z,9.8123
2023-05-15T02:15:35.729Z,9.9863
2023-05-15T02:16:43.929Z,10.0031
2023-05-15T02:17:51.963Z,10.0242
2023-05-15T02:19:00.213Z,10.0645
2023-05-15T02:20:08.144Z,10.1269
2023-05-15T02:21:16.237Z,10.1608
2023-05-15T02:22:24.219Z,10.0586
2023-05-15T02:23:32.301Z,10.1137
2023-05-15T02:24:40.400Z,10.2007
2023-05-15T02:25:48.563Z,10.1099
2023-05-15T02:26:56.505Z,10.0637
2023-05-15T02:28:04.671Z,9.9178
2023-05-15T02:29:12.808Z,9.9218
2023-05-15T02:30:20.596Z,9.9005
2023-05-15T02:31:28.664Z,9.7925
2023-05-15T02:32:36.685Z,9.8368
2023-05-15T02:33:44.914Z,9.8955
2023-05-15T02:34:52.900Z,9.9542
2023-05-15T02:36:01.110Z,9.9802
2023-05-15T02:37:09.042Z,10.0670
2023-05-15T02:38:17.101Z,10.1059
2023-05-15T02:39:25.202Z,10.1124
2023-05-15T02:40:33.210Z,9.9928
2023-05-15T02:41:41.328Z,9.9195
2023-05-15T02:42:49.444Z,9.9344
2023-05-15T02:43:57.380Z,10.0052
2023-05-15T02:45:05.329Z,9.7898
2023-05-15T02:46:13.427Z,9.6950
2023-05-15T02:47:21.488Z,9.6983
2023-05-15T02:48:29.595Z,9.5386
2023-05-15T02:49:37.588Z,9.3092
2023-05-15T02:50:45.783Z,9.2054
2023-05-15T02:51:53.943Z,9.2344
2023-05-15T02:53:01.920Z,9.2313
2023-05-15T02:54:09.968Z,9.1758
2023-05-15T02:55:17.992Z,9.0353
2023-05-15T02:56:26.075Z,9.0889
2023-05-15T02:57:34.135Z,9.0522
2023-05-15T02:58:42.255Z,9.1547
2023-05-15T02:59:50.121Z,9.2992
2023-05-15T03:00:58.201Z,9.2470
2023-05-15T03:02:06.237Z,9.2361
2023-05-15T03:03:14.455Z,9.2834
2023-05-15T03:04:22.574Z,9.4249
2023-05-15T03:05:30.564Z,9.5888
2023-05-15T03:06:38.605Z,9.7320
2023-05-15T03:07:46.930Z,9.7685
2023-05-15T03:08:54.786Z,9.7689
2023-05-15T03:10:02.838Z,9.6596
2023-05-15T03:11:10.943Z,9.6134
2023-05-15T03:12:18.953Z,9.6432
2023-05-15T03:13:27.003Z,9.5796
2023-05-15T03:14:34.910Z,9.4352
2023-05-15T03:15:42.976Z,9.4810
2023-05-15T03:16:51.049Z,9.3527
2023-05-15T03:17:59.211Z,9.2884
2023-05-15T03:19:07.381Z,9.3672
2023-05-15T03:20:15.316Z,9.4301
2023-05-15T03:21:23.390Z,9.4042
2023-05-15T03:22:31.436Z,9.4814
2023-05-15T03:23:39.558Z,9.6430
2023-05-15T03:24:47.546Z,9.6542
2023-05-15T03:25:55.624Z,9.4944
2023-05-15T03:27:03.714Z,9.3649
2023-05-15T03:28:11.743Z,9.3721
2023-05-15T03:29:19.644Z,9.3536
2023-05-15T03:30:27.708Z,9.2931
2023-05-15T03:31:35.916Z,9.2945
2023-05-15T03:32:44.056Z,9.2483
2023-05-15T03:33:52.063Z,9.2674
2023-05-15T03:35:00.057Z,9.1827
2023-05-15T03:36:08.100Z,9.1127
2023-05-15T03:37:16.242Z,9.0887
2023-05-15T03:38:24.300Z,9.1226
2023-05-15T03:39:32.415Z,9.2418
2023-05-15T03:40:40.382Z,9.2701
2023-05-15T03:41:48.417Z,9.3565
2023-05-15T03:42:56.616Z,9.2382
2023-05-15T03:44:04.454Z,9.2050
2023-05-15T03:45:12.491Z,9.2605
2023-05-15T03:46:20.557Z,9.3178
2023-05-15T03:47:28.721Z,9.3971
2023-05-15T03:48:36.772Z,9.4955
2023-05-15T03:49:44.936Z,9.4890
2023-05-15T03:50:52.791Z,9.5642
2023-05-15T03:52:00.950Z,9.4713
2023-05-15T03:53:09.024Z,9.4335
2023-05-15T03:54:17.077Z,9.5205
2023-05-15T03:55:25.500Z,9.5838
2023-05-15T03:56:33.305Z,9.6660
2023-05-15T03:57:41.453Z,9.7563
2023-05-15T03:58:49.172Z,9.8097
2023-05-15T03:59:57.231Z,9.7925
2023-05-15T04:01:05.307Z,9.8738
2023-05-15T04:02:13.512Z,9.6895
2023-05-15T04:03:21.677Z,9.6298
2023-05-15T04:04:29.580Z,9.6449
2023-05-15T04:05:37.828Z,9.7130
2023-05-15T04:06:45.756Z,9.8226
2023-05-15T04:07:53.788Z,9.9148
2023-05-15T04:09:01.863Z,9.9701
2023-05-15T04:10:09.928Z,9.9508
2023-05-15T04:11:17.950Z,10.0227
2023-05-15T04:12:26.078Z,10.0805
2023-05-15T04:13:33.974Z,10.0714
2023-05-15T04:14:42.030Z,10.0195
2023-05-15T04:15:50.077Z,9.9510
2023-05-15T04:16:58.292Z,9.8316
2023-05-15T04:18:06.375Z,9.6529
2023-05-15T04:19:14.464Z,9.5360
2023-05-15T04:20:22.472Z,9.4923
2023-05-15T04:21:30.500Z,9.4337
2023-05-15T04:22:38.577Z,9.4984
2023-05-15T04:23:46.670Z,9.3603
2023-05-15T04:24:54.685Z,9.1657
2023-05-15T04:26:02.736Z,9.1600
2023-05-15T04:27:10.809Z,9.1009
2023-05-15T04:28:18.714Z,9.0532
2023-05-15T04:29:26.816Z,9.1188
2023-05-15T04:30:34.838Z,9.0416
2023-05-15T04:31:43.167Z,8.9407
2023-05-15T04:32:51.274Z,8.8026
2023-05-15T04:33:59.168Z,8.8636
2023-05-15T04:35:07.322Z,9.0631
2023-05-15T04:36:15.278Z,9.0742
2023-05-15T04:37:23.293Z,9.1503
2023-05-15T04:38:31.456Z,9.2071
2023-05-15T04:39:39.437Z,9.2401
2023-05-15T04:40:47.541Z,9.4078
2023-05-15T04:41:55.593Z,9.5447
2023-05-15T04:43:03.511Z,9.2994
2023-05-15T04:44:11.559Z,9.2581
2023-05-15T04:45:19.606Z,9.4097
2023-05-15T04:46:28.041Z,9.5001
2023-05-15T04:47:35.906Z,9.5791
2023-05-15T04:48:43.894Z,9.5888
2023-05-15T04:49:51.946Z,9.4555
2023-05-15T04:51:00.001Z,9.2865
2023-05-15T04:52:07.975Z,9.2472
2023-05-15T04:53:16.118Z,9.2613
2023-05-15T04:54:24.258Z,9.3073
2023-05-15T04:55:33.608Z,9.4160
2023-05-15T04:56:40.155Z,9.5857
2023-05-15T04:57:48.287Z,9.5213
2023-05-15T04:58:56.227Z,9.4730
2023-05-15T05:00:04.439Z,9.1760
2023-05-15T05:01:12.573Z,9.1236
2023-05-15T05:02:20.644Z,9.2493
2023-05-15T05:03:28.684Z,9.2855
2023-05-15T05:04:36.651Z,9.2998
2023-05-15T05:05:44.795Z,9.3218
2023-05-15T05:06:52.858Z,9.1537
2023-05-15T05:08:00.877Z,9.3025
2023-05-15T05:09:09.156Z,9.4080
2023-05-15T05:10:17.040Z,9.4068
2023-05-15T05:11:24.943Z,9.3574
2023-05-15T05:12:33.001Z,9.2384
2023-05-15T05:13:41.081Z,9.2359
2023-05-15T05:14:49.308Z,9.1417
2023-05-15T05:15:57.298Z,9.1671
2023-05-15T05:17:05.364Z,9.2642
2023-05-15T05:18:13.405Z,9.2745
2023-05-15T05:19:21.477Z,9.3034
2023-05-15T05:20:29.568Z,9.5020
2023-05-15T05:21:37.572Z,9.3952
2023-05-15T05:22:45.632Z,9.1522
2023-05-15T05:23:53.723Z,9.1839
2023-05-15T05:25:01.761Z,9.1980
2023-05-15T05:26:09.774Z,9.0477
2023-05-15T05:27:17.776Z,9.0975
2023-05-15T05:28:25.827Z,9.1348
2023-05-15T05:29:33.994Z,9.0995
2023-05-15T05:30:42.024Z,9.1739
2023-05-15T05:31:50.248Z,9.0782
2023-05-15T05:32:58.452Z,8.8945
2023-05-15T05:34:06.233Z,9.0524
2023-05-15T05:35:14.314Z,9.2035
2023-05-15T05:36:22.350Z,9.1354
2023-05-15T05:37:30.423Z,8.9758
2023-05-15T05:38:38.470Z,9.1507
2023-05-15T05:39:46.543Z,9.2933
2023-05-15T05:40:54.426Z,9.3666
2023-05-15T05:42:02.499Z,9.4148
2023-05-15T05:43:10.610Z,9.5014
2023-05-15T05:44:18.741Z,9.4953
2023-05-15T05:45:26.957Z,9.5163
2023-05-15T05:46:34.899Z,9.6050
2023-05-15T05:47:42.892Z,9.7215
2023-05-15T05:48:51.050Z,9.8327
2023-05-15T05:49:59.111Z,9.7662
2023-05-15T05:51:07.063Z,9.6262
2023-05-15T05:52:15.173Z,9.5691
2023-05-15T05:53:23.103Z,9.4343
2023-05-15T05:54:31.326Z,9.3731
2023-05-15T05:55:39.218Z,9.3986
2023-05-15T05:56:47.287Z,9.3759
2023-05-15T05:57:55.333Z,9.5812
2023-05-15T05:59:03.728Z,9.6828
2023-05-15T06:00:11.616Z,9.5619
2023-05-15T06:01:19.612Z,9.6208
2023-05-15T06:02:27.810Z,9.6224
2023-05-15T06:03:35.821Z,9.7992
2023-05-15T06:04:43.810Z,9.8505
2023-05-15T06:05:51.951Z,9.7458
2023-05-15T06:06:59.927Z,9.7591
2023-05-15T06:08:08.070Z,9.8154
2023-05-15T06:09:16.123Z,9.9058
2023-05-15T06:10:24.235Z,9.9731
2023-05-15T06:11:32.103Z,10.0897
2023-05-15T06:12:40.125Z,10.1877
2023-05-15T06:13:48.279Z,10.3584
2023-05-15T06:14:56.587Z,10.3788
2023-05-15T06:16:04.365Z,10.4135
2023-05-15T06:17:12.589Z,10.4658
2023-05-15T06:18:20.558Z,10.5003
2023-05-15T06:19:28.559Z,10.4761
2023-05-15T06:20:36.586Z,10.4620
2023-05-15T06:21:44.850Z,10.5953
2023-05-15T06:22:52.750Z,10.5322
2023-05-15T06:24:00.840Z,10.3767
2023-05-15T06:25:08.774Z,10.3466
2023-05-15T06:26:16.821Z,10.1469
2023-05-15T06:27:24.860Z,10.3315
2023-05-15T06:28:33.100Z,10.4029
2023-05-15T06:29:41.140Z,10.4885
2023-05-15T06:30:49.282Z,10.5471
2023-05-15T06:31:57.215Z,10.5884
2023-05-15T06:33:05.383Z,10.5022
2023-05-15T06:34:13.390Z,10.4206
2023-05-15T06:35:21.412Z,10.5293
2023-05-15T06:36:29.518Z,10.4584
2023-05-15T06:37:37.549Z,10.2613
2023-05-15T06:38:45.727Z,10.4143
2023-05-15T06:39:53.571Z,10.3626
2023-05-15T06:41:01.558Z,10.3969
2023-05-15T06:42:09.625Z,10.4774
2023-05-15T06:43:17.828Z,10.6062
2023-05-15T06:44:25.919Z,10.6972
2023-05-15T06:45:34.016Z,10.6504
2023-05-15T06:46:42.371Z,10.6411
2023-05-15T06:47:50.113Z,10.6819
2023-05-15T06:48:58.123Z,10.7632
2023-05-15T06:50:06.154Z,10.9047
2023-05-15T06:51:14.286Z,10.9848
2023-05-15T06:52:22.311Z,11.0281
2023-05-15T06:53:30.349Z,11.0615
2023-05-15T06:54:38.296Z,10.9873
2023-05-15T06:55:46.358Z,10.9812
2023-05-15T06:56:54.450Z,11.0756
2023-05-15T06:58:02.724Z,11.0586
2023-05-15T06:59:10.875Z,10.9119
2023-05-15T07:00:18.714Z,10.9919
2023-05-15T07:01:26.867Z,11.0313
2023-05-15T07:02:35.028Z,11.0395
2023-05-15T07:03:42.889Z,11.2020
2023-05-15T07:04:51.210Z,11.0836
2023-05-15T07:05:59.016Z,10.9682
2023-05-15T07:07:07.049Z,10.7882
2023-05-15T07:08:15.144Z,10.6325
2023-05-15T07:09:23.064Z,10.7683
2023-05-15T07:10:31.117Z,10.8305
2023-05-15T07:11:39.162Z,10.6749
2023-05-15T07:12:47.333Z,10.4471
2023-05-15T07:13:55.495Z,10.5905
2023-05-15T07:15:03.508Z,10.6689
2023-05-15T07:16:11.557Z,10.5692
2023-05-15T07:17:19.619Z,10.2672
2023-05-15T07:18:27.811Z,10.1478
2023-05-15T07:19:35.832Z,10.2554
2023-05-15T07:20:43.753Z,10.3466
2023-05-15T07:21:51.832Z,10.4610
2023-05-15T07:22:59.931Z,10.5671
2023-05-15T07:24:07.803Z,10.6499
2023-05-15T07:25:17.069Z,10.7691
2023-05-15T07:26:34.246Z,10.9577
2023-05-15T07:27:37.027Z,10.9391
2023-05-15T07:28:45.009Z,11.0825
2023-05-15T07:29:53.076Z,11.0474
2023-05-15T07:31:02.988Z,11.0624
2023-05-15T07:32:14.054Z,11.2255
2023-05-15T07:33:22.122Z,11.2892
2023-05-15T07:34:30.230Z,11.3527
2023-05-15T07:35:38.236Z,11.4218
2023-05-15T07:36:46.229Z,11.4515
2023-05-15T07:37:54.354Z,11.3508
2023-05-15T07:39:02.406Z,11.3779
2023-05-15T07:40:10.469Z,11.5011
2023-05-15T07:41:18.517Z,11.5099
2023-05-15T07:42:26.677Z,11.5686
2023-05-15T07:43:34.653Z,11.4407
2023-05-15T07:44:44.996Z,11.4559
2023-05-15T07:45:55.873Z,11.5039
2023-05-15T07:47:03.733Z,11.4647
2023-05-15T07:48:11.792Z,11.4267
2023-05-15T07:49:19.810Z,11.4353
2023-05-15T07:50:27.759Z,11.4912
2023-05-15T07:51:35.844Z,11.5635
2023-05-15T07:52:43.886Z,11.6137
2023-05-15T07:53:52.254Z,11.6219
2023-05-15T07:55:00.137Z,11.5906
2023-05-15T07:56:08.172Z,11.5553
2023-05-15T07:57:16.278Z,11.5501
2023-05-15T07:58:24.288Z,11.6118
2023-05-15T07:59:32.537Z,11.6308
2023-05-15T08:00:40.412Z,11.5194
2023-05-15T08:01:48.456Z,11.5242
2023-05-15T08:02:56.586Z,11.6066
2023-05-15T08:04:04.630Z,11.6720
2023-05-15T08:05:12.603Z,11.6840
2023-05-15T08:06:20.573Z,11.6606
2023-05-15T08:07:28.665Z,11.6251
2023-05-15T08:08:36.812Z,11.5868
2023-05-15T08:09:45.109Z,11.5517
2023-05-15T08:10:52.933Z,11.4128
2023-05-15T08:12:01.044Z,11.2144
2023-05-15T08:13:09.072Z,11.2270
2023-05-15T08:14:17.103Z,11.2055
2023-05-15T08:15:25.478Z,11.1372
2023-05-15T08:16:33.549Z,11.0275
2023-05-15T08:17:41.292Z,10.9602
2023-05-15T08:18:49.597Z,10.8334
2023-05-15T08:19:57.250Z,10.3651
2023-05-15T08:21:05.346Z,10.2789
2023-05-15T08:22:13.449Z,10.4734
2023-05-15T08:23:21.591Z,10.6712
2023-05-15T08:24:29.642Z,10.8757
2023-05-15T08:25:37.828Z,11.0743
2023-05-15T08:26:45.738Z,11.2103
2023-05-15T08:27:53.844Z,11.2148
2023-05-15T08:29:01.857Z,10.9915
2023-05-15T08:30:09.898Z,10.9568
2023-05-15T08:31:18.008Z,11.1568
2023-05-15T08:32:26.374Z,11.2574
2023-05-15T08:33:34.004Z,11.4035
2023-05-15T08:34:42.021Z,11.3443
2023-05-15T08:35:50.131Z,11.2669
2023-05-15T08:36:58.318Z,11.2572
2023-05-15T08:38:06.329Z,11.2352
2023-05-15T08:39:14.429Z,10.9226
2023-05-15T08:40:34.404Z,11.0912
2023-05-15T08:42:48.313Z,10.6494
2023-05-15T08:43:56.464Z,10.8856
2023-05-15T08:45:04.460Z,11.2080
2023-05-15T08:46:12.624Z,11.1725
2023-05-15T08:47:20.379Z,11.1912
2023-05-15T08:48:28.521Z,11.3176
2023-05-15T08:49:36.510Z,11.4538
2023-05-15T08:50:44.690Z,11.1555
2023-05-15T08:51:52.753Z,11.0523
2023-05-15T08:53:00.873Z,11.1500
2023-05-15T08:54:08.889Z,11.2982
2023-05-15T08:55:16.945Z,11.1601
2023-05-15T08:56:25.069Z,11.1332
2023-05-15T08:57:33.021Z,10.9903
2023-05-15T08:58:41.353Z,10.9369
2023-05-15T08:59:49.200Z,10.9663
2023-05-15T09:00:57.220Z,11.0888
2023-05-15T09:02:05.308Z,11.2633
2023-05-15T09:03:13.313Z,11.2053
2023-05-15T09:04:21.286Z,11.0714
2023-05-15T09:05:29.419Z,11.2446
2023-05-15T09:06:37.539Z,11.4813
2023-05-15T09:07:45.763Z,11.5023
2023-05-15T09:08:53.622Z,11.5311
2023-05-15T09:10:01.678Z,11.3390
2023-05-15T09:11:09.716Z,11.4973
2023-05-15T09:12:17.802Z,11.5543
2023-05-15T09:13:25.889Z,11.4620
2023-05-15T09:14:33.981Z,11.3955
2023-05-15T09:15:42.158Z,11.7548
2023-05-15T09:16:50.006Z,11.8586
2023-05-15T09:17:58.041Z,11.7813
2023-05-15T09:19:06.189Z,11.7861
2023-05-15T09:20:14.283Z,11.5068
2023-05-15T09:21:22.316Z,11.1912
2023-05-15T09:22:30.386Z,11.1387
2023-05-15T09:23:38.562Z,11.1105
2023-05-15T09:24:46.563Z,10.9814
2023-05-15T09:25:54.550Z,10.9028
2023-05-15T09:27:02.601Z,10.6890
2023-05-15T09:28:10.719Z,10.7433
2023-05-15T09:29:19.313Z,10.7544
2023-05-15T09:30:26.729Z,10.8362
2023-05-15T09:31:34.778Z,10.9680
2023-05-15T09:32:42.811Z,11.1744
2023-05-15T09:33:50.946Z,11.2932
2023-05-15T09:34:59.027Z,11.4349
2023-05-15T09:36:07.122Z,11.2305
2023-05-15T09:37:15.126Z,11.0727
2023-05-15T09:38:23.212Z,10.8086
2023-05-15T09:39:31.236Z,10.8093
2023-05-15T09:40:39.303Z,10.7561
2023-05-15T09:41:47.433Z,10.8442
2023-05-15T09:42:55.409Z,10.9352
2023-05-15T09:44:03.499Z,11.0725
2023-05-15T09:45:11.887Z,11.2034
2023-05-15T09:46:19.633Z,11.2644
2023-05-15T09:47:27.677Z,11.3634
2023-05-15T09:48:36.038Z,11.4258
2023-05-15T09:49:43.781Z,11.5561
2023-05-15T09:50:51.819Z,11.5917
2023-05-15T09:51:59.914Z,11.6772
2023-05-15T09:53:08.012Z,11.7331
2023-05-15T09:54:16.005Z,11.9187
2023-05-15T09:55:24.107Z,12.1000
2023-05-15T09:56:32.350Z,12.2116
2023-05-15T09:57:40.197Z,12.4176
2023-05-15T09:58:48.286Z,12.6185
2023-05-15T09:59:56.171Z,12.8701
2023-05-15T10:01:04.406Z,13.5634
2023-05-15T10:02:12.256Z,14.8690
2023-05-15T10:03:20.508Z,16.2188
2023-05-15T10:04:28.615Z,16.3754
2023-05-15T10:06:49.485Z,15.9203
2023-05-15T10:07:57.577Z,15.6491
2023-05-15T10:09:05.645Z,15.6594
2023-05-15T10:10:13.736Z,16.4443
2023-05-15T10:11:21.835Z,16.6772
2023-05-15T10:12:29.815Z,17.4287
2023-05-15T10:13:37.724Z,17.3022
2023-05-15T10:14:45.767Z,17.8140
2023-05-15T10:15:53.957Z,18.1810
2023-05-15T10:17:02.020Z,18.6391
2023-05-15T10:18:10.092Z,18.7284
2023-05-15T10:19:18.158Z,19.2706
2023-05-15T10:20:26.391Z,20.0551
2023-05-15T10:21:34.262Z,20.4963
2023-05-15T10:22:42.311Z,19.7656
2023-05-15T10:23:50.350Z,19.2676
2023-05-15T10:24:58.408Z,17.8903
2023-05-15T10:26:06.486Z,17.1662
2023-05-15T10:27:14.582Z,17.3387
2023-05-15T10:28:22.463Z,17.8102
2023-05-15T10:29:30.513Z,17.0161
2023-05-15T10:30:38.564Z,16.6348
2023-05-15T10:31:46.767Z,16.1687
2023-05-15T10:32:54.876Z,15.9657
2023-05-15T10:34:02.876Z,15.4429
2023-05-15T10:35:10.925Z,15.3258
2023-05-15T10:36:19.063Z,16.3461
2023-05-15T10:37:27.018Z,16.1658
2023-05-15T10:38:35.206Z,15.7903
2023-05-15T10:39:43.155Z,16.0577
2023-05-15T10:40:51.204Z,15.6127
2023-05-15T10:41:59.240Z,15.1299
2023-05-15T10:43:07.170Z,14.0036
2023-05-15T10:44:15.294Z,13.2305
2023-05-15T10:45:23.293Z,12.8727
2023-05-15T10:46:31.630Z,12.8611
2023-05-15T10:47:39.642Z,12.9345
2023-05-15T10:48:47.718Z,13.0438
2023-05-15T10:49:55.719Z,13.0131
2023-05-15T10:51:03.748Z,12.7774
2023-05-15T10:52:11.959Z,12.7383
2023-05-15T10:53:19.783Z,12.8161
2023-05-15T10:54:27.917Z,12.7262
2023-05-15T10:55:35.931Z,12.8100
2023-05-15T10:56:43.943Z,12.7823
2023-05-15T10:57:51.915Z,12.3432
2023-05-15T10:58:59.966Z,12.0283
2023-05-15T11:00:08.014Z,11.9278
2023-05-15T11:01:16.463Z,12.0176
2023-05-15T11:02:24.267Z,11.7724
2023-05-15T11:03:41.267Z,11.6158
2023-05-15T11:04:45.314Z,11.5198
2023-05-15T11:05:53.382Z,11.5080
2023-05-15T11:07:01.389Z,11.5810
2023-05-15T11:08:09.492Z,11.6972
2023-05-15T11:09:17.600Z,11.8418
2023-05-15T11:10:25.621Z,11.9051
2023-05-15T11:11:33.470Z,12.0194
2023-05-15T11:12:41.554Z,12.0403
2023-05-15T11:13:49.600Z,12.3203
2023-05-15T11:14:57.735Z,12.4459
2023-05-15T11:16:05.846Z,12.4920
2023-05-15T11:17:14.039Z,12.5904
2023-05-15T11:18:21.974Z,12.5347
2023-05-15T11:19:30.003Z,12.9134
2023-05-15T11:20:38.157Z,13.2206
2023-05-15T11:21:46.094Z,13.3564
2023-05-15T11:22:54.143Z,13.1878
2023-05-15T11:24:02.287Z,13.3183
2023-05-15T11:25:10.405Z,13.0860
2023-05-15T11:26:18.196Z,13.1886
2023-05-15T11:27:26.337Z,13.4823
2023-05-15T11:28:34.320Z,13.9746
2023-05-15T11:29:42.510Z,14.4900
2023-05-15T11:30:50.552Z,15.1206
2023-05-15T11:31:58.635Z,15.1686
2023-05-15T11:33:06.822Z,15.0077
2023-05-15T11:34:14.770Z,15.3796
2023-05-15T11:35:22.795Z,15.6245
2023-05-15T11:36:30.947Z,15.8746
2023-05-15T11:37:38.800Z,16.1471
2023-05-15T11:38:46.833Z,15.8604
2023-05-15T11:39:54.895Z,15.5228
2023-05-15T11:41:03.170Z,15.2165
2023-05-15T11:42:11.385Z,14.7389
2023-05-15T11:43:19.188Z,14.8772
2023-05-15T11:44:27.289Z,15.1030
2023-05-15T11:45:35.537Z,15.3395
2023-05-15T11:46:43.452Z,15.6100
2023-05-15T11:47:51.515Z,15.5591
2023-05-15T11:49:00.155Z,16.0287
2023-05-15T11:50:07.576Z,16.5843
2023-05-15T11:51:15.644Z,17.3720
2023-05-15T11:52:23.708Z,18.2283
2023-05-15T11:53:31.586Z,19.0643
2023-05-15T11:54:39.656Z,19.6378
2023-05-15T11:55:47.713Z,20.5652
2023-05-15T11:56:56.154Z,21.2661
2023-05-15T11:58:04.263Z,20.5928
2023-05-15T11:59:12.082Z,20.6594
2023-05-15T12:00:20.093Z,19.7830
2023-05-15T12:01:28.162Z,19.8551
2023-05-15T12:02:36.272Z,20.2005
2023-05-15T12:03:44.456Z,19.6086
2023-05-15T12:04:52.547Z,20.0777
2023-05-15T12:06:00.534Z,20.6613
2023-05-15T12:07:08.445Z,19.6256
2023-05-15T12:08:16.378Z,20.2917
2023-05-15T12:09:24.489Z,21.1971
2023-05-15T12:10:32.491Z,22.1557
2023-05-15T12:11:40.656Z,23.0291
2023-05-15T12:12:48.883Z,23.1527
2023-05-15T12:13:56.924Z,23.2004
2023-05-15T12:15:04.901Z,22.7314
2023-05-15T12:16:13.031Z,22.9416
2023-05-15T12:17:21.006Z,24.3290
2023-05-15T12:18:29.051Z,25.1850
2023-05-15T12:19:37.105Z,25.5322
2023-05-15T12:20:45.278Z,26.4651
2023-05-15T12:21:53.301Z,26.3815
2023-05-15T12:23:01.156Z,25.1127
2023-05-15T12:24:09.210Z,25.5623
2023-05-15T12:25:17.273Z,25.8734
2023-05-15T12:26:25.499Z,25.4793
2023-05-15T12:27:33.527Z,25.4595
2023-05-15T12:28:41.765Z,25.7738
2023-05-15T12:29:49.763Z,25.7691
2023-05-15T12:30:57.695Z,24.3103
2023-05-15T12:32:05.895Z,22.0102
2023-05-15T12:33:13.828Z,20.7840
2023-05-15T12:34:22.033Z,20.5072
2023-05-15T12:35:30.095Z,20.3916
2023-05-15T12:36:38.021Z,20.3351
2023-05-15T12:37:45.990Z,20.2928
2023-05-15T12:38:53.967Z,20.3594
2023-05-15T12:40:02.116Z,20.5787
2023-05-15T12:41:10.217Z,21.5505
2023-05-15T12:42:18.309Z,21.1538
2023-05-15T12:43:26.448Z,21.6879
2023-05-15T12:44:34.341Z,23.1834
2023-05-15T12:45:42.640Z,24.7349
2023-05-15T12:46:50.512Z,25.9858
2023-05-15T12:47:58.582Z,26.7111
2023-05-15T12:49:06.655Z,26.9032
2023-05-15T12:50:14.724Z,27.7363
2023-05-15T12:51:22.760Z,28.9639
2023-05-15T12:52:30.692Z,29.3298
2023-05-15T12:53:38.762Z,28.0402
2023-05-15T12:54:46.852Z,26.5992
2023-05-15T12:55:54.994Z,25.4368
2023-05-15T12:57:03.360Z,24.8421
2023-05-15T12:58:11.119Z,24.4246
2023-05-15T12:59:19.150Z,23.6767
2023-05-15T13:00:27.421Z,22.9025
2023-05-15T13:01:35.470Z,23.1913
2023-05-15T13:02:43.427Z,22.9772
2023-05-15T13:03:51.568Z,22.2427
2023-05-15T13:04:59.508Z,21.1607
2023-05-15T13:06:07.632Z,20.8789
2023-05-15T13:07:15.482Z,20.9457
2023-05-15T13:08:23.533Z,20.2854
2023-05-15T13:09:31.620Z,19.7105
2023-05-15T13:10:39.767Z,18.7648
2023-05-15T13:11:47.982Z,17.5756
2023-05-15T13:12:55.919Z,16.7821
2023-05-15T13:14:04.010Z,16.7506
2023-05-15T13:15:12.319Z,16.9793
2023-05-15T13:16:20.172Z,16.7808
2023-05-15T13:17:28.360Z,16.7972
2023-05-15T13:18:36.291Z,16.7741
2023-05-15T13:19:44.309Z,16.7848
2023-05-15T13:20:52.354Z,16.7151
2023-05-15T13:22:00.285Z,16.4908
2023-05-15T13:23:08.477Z,16.4262
2023-05-15T13:24:16.474Z,16.3943
2023-05-15T13:25:24.675Z,16.3318
2023-05-15T13:26:32.723Z,16.0516
2023-05-15T13:27:40.858Z,16.2873
2023-05-15T13:28:48.907Z,16.7003
2023-05-15T13:29:56.945Z,18.0522
2023-05-15T13:31:05.023Z,19.0501
2023-05-15T13:32:13.049Z,20.6668
2023-05-15T13:33:21.055Z,21.4456
2023-05-15T13:34:29.358Z,21.3188
2023-05-15T13:35:37.212Z,20.4195
2023-05-15T13:36:45.149Z,19.7614
2023-05-15T13:37:53.195Z,19.4516
2023-05-15T13:39:01.278Z,19.2733
2023-05-15T13:40:09.503Z,19.0988
2023-05-15T13:41:17.713Z,18.9515
2023-05-15T13:42:25.567Z,19.0019
2023-05-15T13:43:33.637Z,18.5144
2023-05-15T13:44:41.706Z,18.3387
2023-05-15T13:45:49.885Z,18.0961
2023-05-15T13:46:57.872Z,18.0987
2023-05-15T13:48:05.928Z,18.4755
2023-05-15T13:49:13.996Z,18.5868
2023-05-15T13:50:21.999Z,18.7576
2023-05-15T13:51:29.962Z,18.4384
2023-05-15T13:52:38.020Z,18.9184
2023-05-15T13:53:46.073Z,20.0464
2023-05-15T13:54:54.237Z,20.9827